Roosevelt Corner, California
Current Conditions -  °F | °C
As of 10:58 PM on Friday 24 Oct 2014 (Local Time) from KEDW Reporting Station
Clear Clear  
Wind Chill: 60°   Ceiling: Unl
Heat Index: 60°   Visibility: 10mi
Dew Point: 27°   Wind: 8mph
Humidity: 28%   Direction: 120°ESE
Pressure: 30.03"   Gusts: NA
Location:  34.7192°N, 117.884°W
Report Text: KEDW 250558Z AUTO 12007KT 10SM CLR 16/M03 A3003 RMK AO2 SLP156 T01571028 10300 20157 52018
Loading
Personal Weather Stations






























Interactive Weather Map
Tropical Storm Tracking
New forecast layout! Learn more

10-Day Weather Forecast

Advertisements
Track Severe Weather on mobile